createdAt,value
2019-05-26T00:00:40.893Z,991.12
2019-05-26T00:01:40.892Z,991.12
2019-05-26T00:02:40.890Z,991.15
2019-05-26T00:03:40.897Z,991.11
2019-05-26T00:04:40.880Z,991.13
2019-05-26T00:05:40.874Z,991.14
2019-05-26T00:06:40.869Z,991.09
2019-05-26T00:07:40.866Z,991.09
2019-05-26T00:08:40.869Z,991.07
2019-05-26T00:09:47.137Z,991.05
2019-05-26T00:10:40.852Z,991.11
2019-05-26T00:11:40.847Z,991.1
2019-05-26T00:12:40.846Z,991.11
2019-05-26T00:13:40.843Z,991.12
2019-05-26T00:14:40.835Z,991.12
2019-05-26T00:15:40.832Z,991.13
2019-05-26T00:16:40.828Z,991.1
2019-05-26T00:17:40.822Z,991.1
2019-05-26T00:18:40.819Z,991.09
2019-05-26T00:19:40.820Z,991.03
2019-05-26T00:20:40.812Z,991.04
2019-05-26T00:21:40.808Z,990.97
2019-05-26T00:22:40.802Z,990.96
2019-05-26T00:23:40.797Z,990.94
2019-05-26T00:24:40.796Z,990.96
2019-05-26T00:25:40.793Z,990.93
2019-05-26T00:26:40.792Z,990.88
2019-05-26T00:27:40.784Z,990.93
2019-05-26T00:28:40.780Z,990.87
2019-05-26T00:29:40.774Z,990.9
2019-05-26T00:30:41.377Z,990.88
2019-05-26T00:31:40.774Z,990.88
2019-05-26T00:32:40.765Z,990.83
2019-05-26T00:33:40.758Z,990.87
2019-05-26T00:34:40.757Z,990.8
2019-05-26T00:35:40.760Z,990.81
2019-05-26T00:36:40.753Z,990.83
2019-05-26T00:37:48.903Z,990.84
2019-05-26T00:38:40.743Z,990.85
2019-05-26T00:39:40.741Z,990.85
2019-05-26T00:40:40.737Z,990.88
2019-05-26T00:41:43.762Z,990.88
2019-05-26T00:42:40.723Z,990.89
2019-05-26T00:43:40.736Z,990.86
2019-05-26T00:44:40.716Z,990.87
2019-05-26T00:45:40.712Z,990.85
2019-05-26T00:46:40.712Z,990.81
2019-05-26T00:47:40.706Z,990.82
2019-05-26T00:48:40.704Z,990.76
2019-05-26T00:49:40.699Z,990.79
2019-05-26T00:50:40.695Z,990.77
2019-05-26T00:51:40.691Z,990.75
2019-05-26T00:52:40.688Z,990.75
2019-05-26T00:53:40.682Z,990.73
2019-05-26T00:54:40.730Z,990.77
2019-05-26T00:55:40.672Z,990.75
2019-05-26T00:56:40.671Z,990.76
2019-05-26T00:57:40.666Z,990.69
2019-05-26T00:58:40.665Z,990.72
2019-05-26T00:59:40.660Z,990.7
2019-05-26T01:00:40.663Z,990.76
2019-05-26T01:01:40.652Z,990.74
2019-05-26T01:02:40.650Z,990.77
2019-05-26T01:03:40.644Z,990.77
2019-05-26T01:04:40.646Z,990.76
2019-05-26T01:05:40.637Z,990.76
2019-05-26T01:06:40.632Z,990.73
2019-05-26T01:07:40.630Z,990.79
2019-05-26T01:08:40.628Z,990.76
2019-05-26T01:09:40.672Z,990.77
2019-05-26T01:10:40.617Z,990.79
2019-05-26T01:11:40.619Z,990.78
2019-05-26T01:12:40.609Z,990.81
2019-05-26T01:13:42.021Z,990.85
2019-05-26T01:14:40.603Z,990.85
2019-05-26T01:15:40.600Z,990.84
2019-05-26T01:16:40.595Z,990.85
2019-05-26T01:17:40.591Z,990.89
2019-05-26T01:18:40.594Z,990.88
2019-05-26T01:19:40.584Z,990.92
2019-05-26T01:20:40.579Z,990.98
2019-05-26T01:21:40.573Z,990.95
2019-05-26T01:22:40.572Z,990.93
2019-05-26T01:23:40.571Z,990.95
2019-05-26T01:24:45.418Z,990.95
2019-05-26T01:25:40.563Z,990.93
2019-05-26T01:26:40.562Z,990.95
2019-05-26T01:27:40.549Z,990.99
2019-05-26T01:28:40.548Z,990.93
2019-05-26T01:29:40.543Z,990.96
2019-05-26T01:30:40.541Z,990.93
2019-05-26T01:31:40.546Z,990.95
2019-05-26T01:32:40.533Z,990.94
2019-05-26T01:33:40.541Z,990.93
2019-05-26T01:34:40.534Z,990.94
2019-05-26T01:35:40.519Z,991.01
2019-05-26T01:36:40.515Z,990.94
2019-05-26T01:37:40.511Z,991
2019-05-26T01:38:40.510Z,990.99
2019-05-26T01:39:40.516Z,991
2019-05-26T01:40:40.519Z,991
2019-05-26T01:41:40.495Z,990.98
2019-05-26T01:42:40.489Z,990.99
2019-05-26T01:43:40.486Z,990.98
2019-05-26T01:44:40.482Z,991.02
2019-05-26T01:45:40.483Z,990.95
2019-05-26T01:46:40.474Z,991
2019-05-26T01:47:40.468Z,990.99
2019-05-26T01:48:40.465Z,990.99
2019-05-26T01:49:40.467Z,990.98
2019-05-26T01:50:40.459Z,990.97
2019-05-26T01:51:40.453Z,990.98
2019-05-26T01:52:40.457Z,990.94
2019-05-26T01:53:40.446Z,990.94
2019-05-26T01:54:41.021Z,990.98
2019-05-26T01:55:40.439Z,990.92
2019-05-26T01:56:43.462Z,990.9
2019-05-26T01:57:40.430Z,990.93
2019-05-26T01:58:40.423Z,990.91
2019-05-26T01:59:40.418Z,990.9
2019-05-26T02:00:40.462Z,990.9
2019-05-26T02:01:40.417Z,990.86
2019-05-26T02:02:40.409Z,990.9
2019-05-26T02:03:40.400Z,990.87
2019-05-26T02:04:40.397Z,990.88
2019-05-26T02:05:40.395Z,990.86
2019-05-26T02:06:40.386Z,990.9
2019-05-26T02:07:46.662Z,990.85
2019-05-26T02:08:40.379Z,990.89
2019-05-26T02:09:40.382Z,990.89
2019-05-26T02:10:40.402Z,990.87
2019-05-26T02:11:40.371Z,990.91
2019-05-26T02:12:40.363Z,990.9
2019-05-26T02:13:40.359Z,990.89
2019-05-26T02:14:40.355Z,990.9
2019-05-26T02:15:40.346Z,990.89
2019-05-26T02:16:40.343Z,990.89
2019-05-26T02:17:40.341Z,990.91
2019-05-26T02:18:40.340Z,990.93
2019-05-26T02:19:40.330Z,990.91
2019-05-26T02:20:40.329Z,990.92
2019-05-26T02:21:40.322Z,990.9
2019-05-26T02:22:40.317Z,990.92
2019-05-26T02:23:40.316Z,990.96
2019-05-26T02:24:40.306Z,990.95
2019-05-26T02:25:40.364Z,990.94
2019-05-26T02:26:40.299Z,990.94
2019-05-26T02:27:40.302Z,990.96
2019-05-26T02:28:40.900Z,990.97
2019-05-26T02:29:40.285Z,991
2019-05-26T02:30:40.286Z,990.97
2019-05-26T02:31:40.298Z,991.01
2019-05-26T02:32:40.272Z,990.98
2019-05-26T02:33:40.273Z,991.01
2019-05-26T02:34:40.266Z,991.03
2019-05-26T02:35:40.266Z,991.08
2019-05-26T02:36:40.293Z,991.05
2019-05-26T02:37:40.250Z,991.01
2019-05-26T02:38:59.689Z,991.03
2019-05-26T02:39:43.275Z,991.06
2019-05-26T02:40:42.146Z,991
2019-05-26T02:41:40.232Z,991.02
2019-05-26T02:42:40.236Z,991.01
2019-05-26T02:43:40.224Z,991
2019-05-26T02:44:40.222Z,990.96
2019-05-26T02:45:40.214Z,990.98
2019-05-26T02:46:40.213Z,990.97
2019-05-26T02:47:40.211Z,990.97
2019-05-26T02:48:40.209Z,990.94
2019-05-26T02:49:40.198Z,990.94
2019-05-26T02:50:40.192Z,991
2019-05-26T02:51:40.196Z,990.97
2019-05-26T02:52:40.185Z,991
2019-05-26T02:53:40.186Z,991
2019-05-26T02:54:40.175Z,990.99
2019-05-26T02:55:40.168Z,991.01
2019-05-26T02:56:40.166Z,991.04
2019-05-26T02:57:40.162Z,991.03
2019-05-26T02:58:40.161Z,991.03
2019-05-26T02:59:40.157Z,991.02
2019-05-26T03:00:40.161Z,991.01
2019-05-26T03:01:58.151Z,991.04
2019-05-26T03:02:40.144Z,991.06
2019-05-26T03:03:40.135Z,991.03
2019-05-26T03:04:40.133Z,991.09
2019-05-26T03:05:40.129Z,991.09
2019-05-26T03:06:40.179Z,991.07
2019-05-26T03:07:40.121Z,991.11
2019-05-26T03:08:40.115Z,991.11
2019-05-26T03:09:40.107Z,991.1
2019-05-26T03:10:40.106Z,991.1
2019-05-26T03:11:41.512Z,991.11
2019-05-26T03:12:40.093Z,991.1
2019-05-26T03:13:40.101Z,991.11
2019-05-26T03:14:40.083Z,991.1
2019-05-26T03:15:40.115Z,991.09
2019-05-26T03:16:40.085Z,991.1
2019-05-26T03:17:40.067Z,991.14
2019-05-26T03:18:40.066Z,991.1
2019-05-26T03:19:40.064Z,991.15
2019-05-26T03:20:40.070Z,991.11
2019-05-26T03:21:40.054Z,991.14
2019-05-26T03:22:43.112Z,991.13
2019-05-26T03:23:40.043Z,991.1
2019-05-26T03:24:40.046Z,991.1
2019-05-26T03:25:40.032Z,991.1
2019-05-26T03:26:40.034Z,991.09
2019-05-26T03:27:40.023Z,991.12
2019-05-26T03:28:40.016Z,991.09
2019-05-26T03:29:40.011Z,991.12
2019-05-26T03:30:40.014Z,991.12
2019-05-26T03:31:40.003Z,991.11
2019-05-26T03:32:40.001Z,991.11
2019-05-26T03:33:40.051Z,991.09
2019-05-26T03:34:40.002Z,991.11
2019-05-26T03:35:40.012Z,991.14
2019-05-26T03:36:39.981Z,991.1
2019-05-26T03:37:39.974Z,991.14
2019-05-26T03:38:39.971Z,991.11
2019-05-26T03:39:44.935Z,991.12
2019-05-26T03:40:39.970Z,991.1
2019-05-26T03:41:40.103Z,991.06
2019-05-26T03:42:39.955Z,991.11
2019-05-26T03:43:40.149Z,991.08
2019-05-26T03:44:39.945Z,991.09
2019-05-26T03:45:39.937Z,991.06
2019-05-26T03:46:39.930Z,991.09
2019-05-26T03:47:39.922Z,991.1
2019-05-26T03:48:39.926Z,991.09
2019-05-26T03:49:39.917Z,991.08
2019-05-26T03:50:39.917Z,991.08
2019-05-26T03:51:39.915Z,991.1
2019-05-26T03:52:39.905Z,991.1
2019-05-26T03:53:39.916Z,991.11
2019-05-26T03:54:42.924Z,991.2
2019-05-26T03:55:39.887Z,991.22
2019-05-26T03:56:39.939Z,991.21
2019-05-26T03:57:39.877Z,991.23
2019-05-26T03:58:39.876Z,991.25
2019-05-26T03:59:39.868Z,991.29
2019-05-26T04:00:39.863Z,991.3
2019-05-26T04:01:39.859Z,991.33
2019-05-26T04:02:39.853Z,991.31
2019-05-26T04:03:39.849Z,991.28
2019-05-26T04:04:39.845Z,991.23
2019-05-26T04:05:39.839Z,991.29
2019-05-26T04:06:39.836Z,991.27
2019-05-26T04:07:39.833Z,991.3
2019-05-26T04:08:39.830Z,991.27
2019-05-26T04:09:39.823Z,991.31
2019-05-26T04:10:39.817Z,991.32
2019-05-26T04:11:43.122Z,991.25
2019-05-26T04:12:39.811Z,991.22
2019-05-26T04:13:39.806Z,991.26
2019-05-26T04:14:39.837Z,991.22
2019-05-26T04:15:39.832Z,991.19
2019-05-26T04:16:39.819Z,991.23
2019-05-26T04:17:39.789Z,991.14
2019-05-26T04:18:39.827Z,991.21
2019-05-26T04:19:39.782Z,991.28
2019-05-26T04:20:39.778Z,991.21
2019-05-26T04:21:39.780Z,991.25
2019-05-26T04:22:39.767Z,991.3
2019-05-26T04:23:39.787Z,991.23
2019-05-26T04:24:39.763Z,991.28
2019-05-26T04:25:39.768Z,991.27
2019-05-26T04:26:41.170Z,991.2
2019-05-26T04:27:39.750Z,991.25
2019-05-26T04:28:39.750Z,991.24
2019-05-26T04:29:39.745Z,991.25
2019-05-26T04:30:39.741Z,991.26
2019-05-26T04:31:39.762Z,991.21
2019-05-26T04:32:39.734Z,991.24
2019-05-26T04:33:39.728Z,991.2
2019-05-26T04:34:39.741Z,991.25
2019-05-26T04:35:39.728Z,991.27
2019-05-26T04:36:39.722Z,991.29
2019-05-26T04:37:42.749Z,991.28
2019-05-26T04:38:39.715Z,991.3
2019-05-26T04:39:39.712Z,991.28
2019-05-26T04:40:39.705Z,991.31
2019-05-26T04:41:39.705Z,991.31
2019-05-26T04:42:39.698Z,991.28
2019-05-26T04:43:39.694Z,991.3
2019-05-26T04:44:39.690Z,991.34
2019-05-26T04:45:39.688Z,991.31
2019-05-26T04:46:39.685Z,991.33
2019-05-26T04:47:39.687Z,991.31
2019-05-26T04:48:39.677Z,991.33
2019-05-26T04:49:39.682Z,991.34
2019-05-26T04:50:39.671Z,991.31
2019-05-26T04:51:39.669Z,991.35
2019-05-26T04:52:39.671Z,991.36
2019-05-26T04:53:39.694Z,991.36
2019-05-26T04:54:39.657Z,991.36
2019-05-26T04:55:39.660Z,991.37
2019-05-26T04:56:39.657Z,991.35
2019-05-26T04:57:39.668Z,991.38
2019-05-26T04:58:39.640Z,991.4
2019-05-26T04:59:39.642Z,991.38
2019-05-26T05:00:39.644Z,991.41
2019-05-26T05:01:39.628Z,991.45
2019-05-26T05:02:39.624Z,991.39
2019-05-26T05:03:39.621Z,991.41
2019-05-26T05:04:39.618Z,991.42
2019-05-26T05:05:39.618Z,991.45
2019-05-26T05:06:39.614Z,991.47
2019-05-26T05:07:39.623Z,991.5
2019-05-26T05:08:39.603Z,991.49
2019-05-26T05:09:41.016Z,991.48
2019-05-26T05:10:42.552Z,991.48
2019-05-26T05:11:39.597Z,991.52
2019-05-26T05:12:39.588Z,991.51
2019-05-26T05:13:39.585Z,991.48
2019-05-26T05:14:39.581Z,991.52
2019-05-26T05:15:39.586Z,991.49
2019-05-26T05:16:39.578Z,991.56
2019-05-26T05:17:39.578Z,991.59
2019-05-26T05:18:39.575Z,991.59
2019-05-26T05:19:39.582Z,991.61
2019-05-26T05:20:45.833Z,991.63
2019-05-26T05:21:39.562Z,991.69
2019-05-26T05:22:39.558Z,991.65
2019-05-26T05:23:39.561Z,991.67
2019-05-26T05:24:39.548Z,991.68
2019-05-26T05:25:39.547Z,991.69
2019-05-26T05:26:39.550Z,991.68
2019-05-26T05:27:39.595Z,991.63
2019-05-26T05:28:39.541Z,991.63
2019-05-26T05:29:39.538Z,991.68
2019-05-26T05:30:39.538Z,991.66
2019-05-26T05:31:39.538Z,991.63
2019-05-26T05:32:39.580Z,991.66
2019-05-26T05:33:39.532Z,991.63
2019-05-26T05:34:39.530Z,991.7
2019-05-26T05:35:39.529Z,991.73
2019-05-26T05:36:39.527Z,991.73
2019-05-26T05:37:39.528Z,991.73
2019-05-26T05:38:39.524Z,991.74
2019-05-26T05:39:39.525Z,991.77
2019-05-26T05:40:39.530Z,991.77
2019-05-26T05:41:40.131Z,991.6
2019-05-26T05:42:41.180Z,991.62
2019-05-26T05:43:39.524Z,991.55
2019-05-26T05:44:39.530Z,991.62
2019-05-26T05:45:39.536Z,991.8
2019-05-26T05:46:39.524Z,991.77
2019-05-26T05:47:39.528Z,991.77
2019-05-26T05:48:39.524Z,991.82
2019-05-26T05:49:39.526Z,991.81
2019-05-26T05:50:39.617Z,991.78
2019-05-26T05:51:39.527Z,991.77
2019-05-26T05:52:42.559Z,991.76
2019-05-26T05:53:39.532Z,991.7
2019-05-26T05:54:39.530Z,991.57
2019-05-26T05:55:39.530Z,991.61
2019-05-26T05:56:39.541Z,991.63
2019-05-26T05:57:39.534Z,991.61
2019-05-26T05:58:39.536Z,991.63
2019-05-26T05:59:39.540Z,991.65
2019-05-26T06:00:39.541Z,991.66
2019-05-26T06:01:39.542Z,991.69
2019-05-26T06:02:39.537Z,991.65
2019-05-26T06:03:39.542Z,991.67
2019-05-26T06:04:39.544Z,991.67
2019-05-26T06:05:39.553Z,991.68
2019-05-26T06:06:39.548Z,991.68
2019-05-26T06:07:39.550Z,991.65
2019-05-26T06:08:39.550Z,991.67
2019-05-26T06:09:39.553Z,991.67
2019-05-26T06:10:39.558Z,991.67
2019-05-26T06:11:39.560Z,991.67
2019-05-26T06:12:39.563Z,991.63
2019-05-26T06:13:39.567Z,991.69
2019-05-26T06:14:39.591Z,991.66
2019-05-26T06:15:39.589Z,991.69
2019-05-26T06:16:39.586Z,991.66
2019-05-26T06:17:39.594Z,991.69
2019-05-26T06:18:39.589Z,991.7
2019-05-26T06:19:39.584Z,991.73
2019-05-26T06:20:39.592Z,991.72
2019-05-26T06:21:39.596Z,991.76
2019-05-26T06:22:39.611Z,991.75
2019-05-26T06:23:39.604Z,991.72
2019-05-26T06:24:40.211Z,991.75
2019-05-26T06:25:39.607Z,991.75
2019-05-26T06:26:39.611Z,991.76
2019-05-26T06:27:39.628Z,991.73
2019-05-26T06:28:39.619Z,991.72
2019-05-26T06:29:39.626Z,991.75
2019-05-26T06:30:39.627Z,991.74
2019-05-26T06:31:39.631Z,991.72
2019-05-26T06:32:39.634Z,991.75
2019-05-26T06:33:39.642Z,991.77
2019-05-26T06:34:39.655Z,991.76
2019-05-26T06:35:42.690Z,991.78
2019-05-26T06:36:39.656Z,991.8
2019-05-26T06:37:39.670Z,991.77
2019-05-26T06:38:39.663Z,991.77
2019-05-26T06:39:39.666Z,991.75
2019-05-26T06:40:39.688Z,991.72
2019-05-26T06:41:39.677Z,991.69
2019-05-26T06:42:39.681Z,991.66
2019-05-26T06:43:39.682Z,991.69
2019-05-26T06:44:52.827Z,991.63
2019-05-26T06:45:39.691Z,991.62
2019-05-26T06:46:39.696Z,991.7
2019-05-26T06:47:39.709Z,991.67
2019-05-26T06:48:39.704Z,991.67
2019-05-26T06:49:39.709Z,991.62
2019-05-26T06:50:39.732Z,991.69
2019-05-26T06:51:39.731Z,991.64
2019-05-26T06:52:39.725Z,991.64
2019-05-26T06:53:39.732Z,991.65
2019-05-26T06:54:39.732Z,991.66
2019-05-26T06:55:39.753Z,991.64
2019-05-26T06:56:39.742Z,991.62
2019-05-26T06:57:39.748Z,991.59
2019-05-26T06:58:39.751Z,991.61
2019-05-26T06:59:39.757Z,991.56
2019-05-26T07:00:39.759Z,991.59
2019-05-26T07:01:39.767Z,991.64
2019-05-26T07:02:39.769Z,991.6
2019-05-26T07:03:39.776Z,991.59
2019-05-26T07:04:39.778Z,991.57
2019-05-26T07:05:39.785Z,991.57
2019-05-26T07:06:39.790Z,991.53
2019-05-26T07:07:41.207Z,991.6
2019-05-26T07:08:39.796Z,991.63
2019-05-26T07:09:39.801Z,991.63
2019-05-26T07:10:39.806Z,991.59
2019-05-26T07:11:50.455Z,991.6
2019-05-26T07:12:39.819Z,991.6
2019-05-26T07:13:39.815Z,991.58
2019-05-26T07:14:39.818Z,991.59
2019-05-26T07:15:39.823Z,991.6
2019-05-26T07:16:39.826Z,991.6
2019-05-26T07:17:39.832Z,991.59
2019-05-26T07:18:42.248Z,991.57
2019-05-26T07:19:39.840Z,991.53
2019-05-26T07:20:39.854Z,991.49
2019-05-26T07:21:39.852Z,991.49
2019-05-26T07:22:39.852Z,991.51
2019-05-26T07:23:39.854Z,991.46
2019-05-26T07:24:39.862Z,991.48
2019-05-26T07:25:39.875Z,991.52
2019-05-26T07:26:39.868Z,991.49
2019-05-26T07:27:39.871Z,991.55
2019-05-26T07:28:39.878Z,991.51
2019-05-26T07:29:39.881Z,991.54
2019-05-26T07:30:39.886Z,991.53
2019-05-26T07:31:39.892Z,991.53
2019-05-26T07:32:39.969Z,991.53
2019-05-26T07:33:39.901Z,991.53
2019-05-26T07:34:39.906Z,991.55
2019-05-26T07:35:39.916Z,991.54
2019-05-26T07:36:39.917Z,991.51
2019-05-26T07:37:39.920Z,991.49
2019-05-26T07:38:39.922Z,991.51
2019-05-26T07:39:39.931Z,991.47
2019-05-26T07:40:39.932Z,991.49
2019-05-26T07:41:39.939Z,991.48
2019-05-26T07:42:39.948Z,991.46
2019-05-26T07:43:39.948Z,991.46
2019-05-26T07:44:39.955Z,991.46
2019-05-26T07:45:39.961Z,991.45
2019-05-26T07:46:39.969Z,991.48
2019-05-26T07:47:39.971Z,991.42
2019-05-26T07:48:39.979Z,991.43
2019-05-26T07:49:39.983Z,991.41
2019-05-26T07:50:41.405Z,991.47
2019-05-26T07:51:39.996Z,991.44
2019-05-26T07:52:40.006Z,991.46
2019-05-26T07:53:40.010Z,991.42
2019-05-26T07:54:40.013Z,991.49
2019-05-26T07:55:40.032Z,991.48
2019-05-26T07:56:40.030Z,991.47
2019-05-26T07:57:40.032Z,991.48
2019-05-26T07:58:40.040Z,991.49
2019-05-26T07:59:40.047Z,991.47
2019-05-26T08:00:40.053Z,991.46
2019-05-26T08:01:43.092Z,991.39
2019-05-26T08:02:40.064Z,991.4
2019-05-26T08:03:40.071Z,991.41
2019-05-26T08:04:40.080Z,991.44
2019-05-26T08:05:40.096Z,991.42
2019-05-26T08:06:40.093Z,991.45
2019-05-26T08:07:40.098Z,991.44
2019-05-26T08:08:40.104Z,991.38
2019-05-26T08:09:40.113Z,991.37
2019-05-26T08:10:40.118Z,991.38
2019-05-26T08:11:40.127Z,991.37
2019-05-26T08:12:40.132Z,991.4
2019-05-26T08:13:40.135Z,991.4
2019-05-26T08:14:40.150Z,991.37
2019-05-26T08:15:40.193Z,991.34
2019-05-26T08:16:40.167Z,991.36
2019-05-26T08:17:40.164Z,991.35
2019-05-26T08:18:40.180Z,991.3
2019-05-26T08:19:40.182Z,991.36
2019-05-26T08:20:40.184Z,991.33
2019-05-26T08:21:40.191Z,991.34
2019-05-26T08:22:40.199Z,991.28
2019-05-26T08:23:40.207Z,991.3
2019-05-26T08:24:40.213Z,991.26
2019-05-26T08:25:40.220Z,991.26
2019-05-26T08:26:40.226Z,991.27
2019-05-26T08:27:40.230Z,991.26
2019-05-26T08:28:40.240Z,991.25
2019-05-26T08:29:40.248Z,991.25
2019-05-26T08:30:40.252Z,991.22
2019-05-26T08:31:40.261Z,991.23
2019-05-26T08:32:40.277Z,991.19
2019-05-26T08:33:41.689Z,991.2
2019-05-26T08:34:40.279Z,991.17
2019-05-26T08:35:40.287Z,991.18
2019-05-26T08:36:40.292Z,991.2
2019-05-26T08:37:40.301Z,991.17
2019-05-26T08:38:40.306Z,991.19
2019-05-26T08:39:40.316Z,991.2
2019-05-26T08:40:40.319Z,991.21
2019-05-26T08:41:40.330Z,991.23
2019-05-26T08:42:44.290Z,991.22
2019-05-26T08:43:40.348Z,991.21
2019-05-26T08:44:44.653Z,991.21
2019-05-26T08:45:40.353Z,991.18
2019-05-26T08:46:40.359Z,991.18
2019-05-26T08:47:40.361Z,991.21
2019-05-26T08:48:40.372Z,991.23
2019-05-26T08:49:40.376Z,991.25
2019-05-26T08:50:40.394Z,991.21
2019-05-26T08:51:40.392Z,991.21
2019-05-26T08:52:40.395Z,991.2
2019-05-26T08:53:40.399Z,991.16
2019-05-26T08:54:40.407Z,991.19
2019-05-26T08:55:40.413Z,991.17
2019-05-26T08:56:40.423Z,991.15
2019-05-26T08:57:40.431Z,991.15
2019-05-26T08:58:40.436Z,991.13
2019-05-26T08:59:40.442Z,991.13
2019-05-26T09:00:40.445Z,991.1
2019-05-26T09:01:40.447Z,991.11
2019-05-26T09:02:40.450Z,991.1
2019-05-26T09:03:40.459Z,991.13
2019-05-26T09:04:40.463Z,991.09
2019-05-26T09:05:40.466Z,991.07
2019-05-26T09:06:40.473Z,991.09
2019-05-26T09:07:40.485Z,991.06
2019-05-26T09:08:40.481Z,991.08
2019-05-26T09:09:40.494Z,991.09
2019-05-26T09:10:40.496Z,991.06
2019-05-26T09:11:40.496Z,991.08
2019-05-26T09:12:40.499Z,991.07
2019-05-26T09:13:40.501Z,991.05
2019-05-26T09:14:40.505Z,991.07
2019-05-26T09:15:40.508Z,991.08
2019-05-26T09:16:41.929Z,991.05
2019-05-26T09:17:40.516Z,991.06
2019-05-26T09:18:40.521Z,991.06
2019-05-26T09:19:40.530Z,991.01
2019-05-26T09:20:40.527Z,991.05
2019-05-26T09:21:40.532Z,991.05
2019-05-26T09:22:40.538Z,991.03
2019-05-26T09:23:40.537Z,991.01
2019-05-26T09:24:40.538Z,990.98
2019-05-26T09:25:40.545Z,990.99
2019-05-26T09:26:40.552Z,990.97
2019-05-26T09:27:43.588Z,990.98
2019-05-26T09:28:40.564Z,991
2019-05-26T09:29:40.555Z,990.99
2019-05-26T09:30:40.566Z,990.95
2019-05-26T09:31:40.566Z,990.94
2019-05-26T09:32:40.565Z,990.94
2019-05-26T09:33:40.569Z,990.94
2019-05-26T09:34:40.576Z,990.88
2019-05-26T09:35:40.576Z,990.83
2019-05-26T09:36:40.579Z,990.82
2019-05-26T09:37:40.581Z,990.8
2019-05-26T09:38:40.585Z,990.86
2019-05-26T09:39:40.593Z,990.77
2019-05-26T09:40:40.596Z,990.83
2019-05-26T09:41:40.600Z,990.86
2019-05-26T09:42:40.600Z,990.84
2019-05-26T09:43:40.604Z,990.82
2019-05-26T09:44:40.606Z,990.77
2019-05-26T09:45:40.610Z,990.75
2019-05-26T09:46:40.620Z,990.78
2019-05-26T09:47:40.616Z,990.75
2019-05-26T09:48:40.822Z,990.76
2019-05-26T09:49:40.623Z,990.78
2019-05-26T09:50:40.625Z,990.72
2019-05-26T09:51:40.630Z,990.75
2019-05-26T09:52:40.629Z,990.73
2019-05-26T09:53:40.633Z,990.75
2019-05-26T09:54:40.639Z,990.72
2019-05-26T09:55:40.641Z,990.73
2019-05-26T09:56:40.646Z,990.7
2019-05-26T09:57:40.649Z,990.71
2019-05-26T09:58:40.647Z,990.71
2019-05-26T09:59:43.685Z,990.68
2019-05-26T10:00:40.655Z,990.65
2019-05-26T10:01:40.658Z,990.63
2019-05-26T10:02:40.665Z,990.65
2019-05-26T10:03:40.677Z,990.59
2019-05-26T10:04:40.669Z,990.59
2019-05-26T10:05:40.671Z,990.68
2019-05-26T10:06:40.675Z,990.65
2019-05-26T10:07:40.674Z,990.62
2019-05-26T10:08:40.680Z,990.69
2019-05-26T10:09:40.682Z,990.6
2019-05-26T10:10:46.963Z,990.58
2019-05-26T10:11:40.698Z,990.62
2019-05-26T10:12:40.699Z,990.54
2019-05-26T10:13:40.706Z,990.49
2019-05-26T10:14:40.698Z,990.56
2019-05-26T10:15:40.707Z,990.48
2019-05-26T10:16:40.709Z,990.48
2019-05-26T10:17:40.710Z,990.53
2019-05-26T10:18:40.708Z,990.45
2019-05-26T10:19:40.815Z,990.46
2019-05-26T10:20:40.726Z,990.52
2019-05-26T10:21:40.719Z,990.51
2019-05-26T10:22:40.730Z,990.56
2019-05-26T10:23:40.726Z,990.5
2019-05-26T10:24:40.728Z,990.53
2019-05-26T10:25:40.731Z,990.54
2019-05-26T10:26:40.732Z,990.58
2019-05-26T10:27:40.734Z,990.54
2019-05-26T10:28:40.738Z,990.57
2019-05-26T10:29:40.748Z,990.5
2019-05-26T10:30:40.819Z,990.45
2019-05-26T10:31:41.360Z,990.52
2019-05-26T10:32:40.747Z,990.48
2019-05-26T10:33:40.752Z,990.5
2019-05-26T10:34:40.754Z,990.51
2019-05-26T10:35:40.756Z,990.49
2019-05-26T10:36:40.777Z,990.5
2019-05-26T10:37:40.796Z,990.49
2019-05-26T10:38:40.773Z,990.44
2019-05-26T10:39:40.772Z,990.49
2019-05-26T10:40:40.778Z,990.54
2019-05-26T10:41:40.771Z,990.5
2019-05-26T10:42:43.827Z,990.44
2019-05-26T10:43:47.113Z,990.41
2019-05-26T10:44:40.789Z,990.44
2019-05-26T10:45:40.981Z,990.4
2019-05-26T10:46:40.799Z,990.42
2019-05-26T10:47:40.798Z,990.45
2019-05-26T10:48:40.800Z,990.44
2019-05-26T10:49:40.793Z,990.35
2019-05-26T10:50:40.805Z,990.35
2019-05-26T10:51:40.806Z,990.33
2019-05-26T10:52:40.817Z,990.36
2019-05-26T10:53:40.804Z,990.35
2019-05-26T10:54:40.814Z,990.32
2019-05-26T10:55:40.817Z,990.32
2019-05-26T10:56:40.815Z,990.27
2019-05-26T10:57:40.825Z,990.27
2019-05-26T10:58:40.830Z,990.25
2019-05-26T10:59:40.821Z,990.23
2019-05-26T11:00:40.874Z,990.26
2019-05-26T11:01:40.826Z,990.25
2019-05-26T11:02:40.829Z,990.25
2019-05-26T11:03:40.834Z,990.24
2019-05-26T11:04:40.857Z,990.24
2019-05-26T11:05:40.846Z,990.26
2019-05-26T11:06:40.851Z,990.26
2019-05-26T11:07:40.847Z,990.25
2019-05-26T11:08:40.846Z,990.22
2019-05-26T11:09:40.854Z,990.25
2019-05-26T11:10:40.852Z,990.2
2019-05-26T11:11:40.852Z,990.21
2019-05-26T11:12:40.859Z,990.21
2019-05-26T11:13:40.983Z,990.13
2019-05-26T11:14:41.475Z,990.13
2019-05-26T11:15:42.767Z,990.15
2019-05-26T11:16:40.868Z,990.08
2019-05-26T11:17:40.873Z,990.08
2019-05-26T11:18:40.874Z,990.07
2019-05-26T11:19:40.876Z,990.09
2019-05-26T11:20:40.880Z,990.06
2019-05-26T11:21:40.880Z,990.08
2019-05-26T11:22:40.889Z,990.05
2019-05-26T11:23:40.886Z,990.1
2019-05-26T11:24:40.890Z,990.12
2019-05-26T11:25:43.926Z,990.1
2019-05-26T11:26:40.895Z,990.14
2019-05-26T11:27:40.907Z,990.13
2019-05-26T11:28:40.901Z,990.11
2019-05-26T11:29:40.906Z,990.1
2019-05-26T11:30:40.906Z,990.08
2019-05-26T11:31:40.913Z,990.06
2019-05-26T11:32:40.926Z,990.06
2019-05-26T11:33:40.940Z,990.06
2019-05-26T11:34:40.923Z,990.06
2019-05-26T11:35:40.922Z,990.05
2019-05-26T11:36:40.925Z,989.94
2019-05-26T11:37:40.941Z,989.99
2019-05-26T11:38:40.930Z,989.98
2019-05-26T11:39:40.936Z,989.87
2019-05-26T11:40:40.946Z,989.9
2019-05-26T11:41:40.942Z,989.83
2019-05-26T11:42:44.017Z,989.86
2019-05-26T11:43:40.947Z,989.84
2019-05-26T11:44:40.950Z,989.87
2019-05-26T11:45:40.959Z,989.89
2019-05-26T11:46:40.963Z,989.88
2019-05-26T11:47:40.961Z,989.84
2019-05-26T11:48:40.963Z,989.84
2019-05-26T11:49:40.966Z,989.88
2019-05-26T11:50:40.976Z,989.86
2019-05-26T11:51:40.977Z,989.92
2019-05-26T11:52:40.979Z,989.85
2019-05-26T11:53:40.984Z,989.9
2019-05-26T11:54:40.988Z,989.89
2019-05-26T11:55:40.990Z,989.86
2019-05-26T11:56:40.993Z,989.89
2019-05-26T11:57:42.412Z,989.84
2019-05-26T11:58:40.998Z,989.87
2019-05-26T11:59:41.000Z,989.85
2019-05-26T12:00:41.007Z,989.83
2019-05-26T12:01:41.008Z,989.78
2019-05-26T12:02:41.009Z,989.8
2019-05-26T12:03:41.013Z,989.81
2019-05-26T12:04:41.022Z,989.83
2019-05-26T12:05:41.022Z,989.81
2019-05-26T12:06:41.029Z,989.79
2019-05-26T12:07:41.028Z,989.76
2019-05-26T12:08:44.065Z,989.79
2019-05-26T12:09:41.039Z,989.82
2019-05-26T12:10:41.036Z,989.83
2019-05-26T12:11:41.046Z,989.88
2019-05-26T12:12:41.046Z,989.85
2019-05-26T12:13:41.058Z,989.82
2019-05-26T12:14:41.052Z,989.8
2019-05-26T12:15:41.057Z,989.83
2019-05-26T12:16:44.316Z,989.77
2019-05-26T12:17:41.067Z,989.74
2019-05-26T12:18:41.066Z,989.72
2019-05-26T12:19:41.072Z,989.73
2019-05-26T12:20:41.082Z,989.68
2019-05-26T12:21:41.082Z,989.66
2019-05-26T12:22:41.087Z,989.6
2019-05-26T12:23:41.093Z,989.62
2019-05-26T12:24:41.095Z,989.6
2019-05-26T12:25:41.099Z,989.58
2019-05-26T12:26:41.103Z,989.52
2019-05-26T12:27:41.103Z,989.55
2019-05-26T12:28:41.106Z,989.51
2019-05-26T12:29:41.112Z,989.52
2019-05-26T12:30:41.117Z,989.56
2019-05-26T12:31:41.119Z,989.5
2019-05-26T12:32:41.132Z,989.53